Time,TemperatureF,DewpointF,PressureIn,WindDirection,WindDirectionDegrees,WindSpeedMPH,WindSpeedGustMPH,Humidity,HourlyPrecipIn,Conditions,Clouds,dailyrainin,SoftwareType,DateUTC
2013-06-26 00:01:00,70.0,54.0,29.73,SSW,202,3.5,4.9,57,0.00,RA,,0.00,WeatherDisplay:10.37,2013-06-26 04:01:00,
2013-06-26 00:06:00,70.2,54.2,29.73,SSW,202,5.8,5.8,57,0.00,RA,,0.00,WeatherDisplay:10.37,2013-06-26 04:06:00,
2013-06-26 00:11:00,70.2,54.2,29.73,WSW,248,5.8,5.8,57,0.00,CLR,,0.00,WeatherDisplay:10.37,2013-06-26 04:11:00,
2013-06-26 00:16:00,70.3,53.9,29.73,SSW,202,5.8,5.8,56,0.00,CLR,,0.00,WeatherDisplay:10.37,2013-06-26 04:16:00,
2013-06-26 00:21:00,70.5,54.5,29.73,West,270,3.5,3.5,57,0.00,CLR,,0.00,WeatherDisplay:10.37,2013-06-26 04:21:00,
2013-06-26 00:26:00,70.5,55.0,29.73,SSW,202,2.3,2.3,58,0.00,CLR,,0.00,WeatherDisplay:10.37,2013-06-26 04:26:00,
2013-06-26 00:31:00,70.5,55.0,29.72,SW,225,5.8,6.2,58,0.00,CLR,,0.00,WeatherDisplay:10.37,2013-06-26 04:31:00,
2013-06-26 00:36:00,70.5,55.0,29.73,SSE,158,6.9,6.9,58,0.00,CLR,,0.00,WeatherDisplay:10.37,2013-06-26 04:36:00,
2013-06-26 00:41:00,70.5,55.0,29.73,West,270,3.5,3.5,58,0.00,CLR,,0.00,WeatherDisplay:10.37,2013-06-26 04:41:00,
2013-06-26 00:46:00,70.5,54.5,29.73,SSW,202,10.4,10.4,57,0.00,CLR,,0.00,WeatherDisplay:10.37,2013-06-26 04:46:00,
2013-06-26 00:51:00,70.3,54.4,29.72,WSW,248,6.9,6.9,57,0.00,CLR,,0.00,WeatherDisplay:10.37,2013-06-26 04:51:00,
2013-06-26 00:56:00,70.3,54.4,29.72,WSW,248,6.9,6.9,57,0.00,CLR,,0.00,WeatherDisplay:10.37,2013-06-26 04:56:00,
2013-06-26 01:01:00,70.3,54.4,29.72,WSW,248,3.5,3.5,57,0.00,CLR,,0.00,WeatherDisplay:10.37,2013-06-26 05:01:00,
2013-06-26 01:06:00,70.5,55.0,29.72,West,270,2.3,2.9,58,0.00,CLR,,0.00,WeatherDisplay:10.37,2013-06-26 05:06:00,
2013-06-26 01:11:00,70.5,55.0,29.72,West,270,3.5,3.5,58,0.00,CLR,,0.00,WeatherDisplay:10.37,2013-06-26 05:11:00,
2013-06-26 01:16:00,70.7,55.2,29.71,SSE,158,6.9,6.9,58,0.00,CLR,,0.00,WeatherDisplay:10.37,2013-06-26 05:16:00,
2013-06-26 01:21:00,70.9,55.4,29.71,WSW,248,3.5,3.5,58,0.00,CLR,,0.00,WeatherDisplay:10.37,2013-06-26 05:21:00,
2013-06-26 01:26:00,71.2,55.7,29.71,SSE,158,4.6,4.6,58,0.00,CLR,,0.00,WeatherDisplay:10.37,2013-06-26 05:26:00,
2013-06-26 01:31:00,71.2,55.7,29.71,NW,315,3.5,3.5,58,0.00,CLR,,0.00,WeatherDisplay:10.37,2013-06-26 05:31:00,
2013-06-26 01:36:00,71.4,55.9,29.71,WSW,248,3.5,3.5,58,0.00,CLR,,0.00,WeatherDisplay:10.37,2013-06-26 05:36:00,
2013-06-26 01:41:00,71.4,56.3,29.71,West,270,1.2,3.3,59,0.00,CLR,,0.00,WeatherDisplay:10.37,2013-06-26 05:41:00,
2013-06-26 01:47:00,71.4,56.3,29.71,SSW,202,5.8,5.8,59,0.00,CLR,,0.00,WeatherDisplay:10.37,2013-06-26 05:47:00,
2013-06-26 01:52:00,71.6,56.5,29.71,West,270,5.8,5.8,59,0.00,CLR,,0.00,WeatherDisplay:10.37,2013-06-26 05:52:00,
2013-06-26 01:57:00,71.6,56.5,29.71,West,270,2.3,2.3,59,0.00,CLR,,0.00,WeatherDisplay:10.37,2013-06-26 05:57:00,
2013-06-26 02:02:00,71.8,56.7,29.71,WSW,248,4.6,4.6,59,0.00,CLR,,0.00,WeatherDisplay:10.37,2013-06-26 06:02:00,
2013-06-26 02:07:00,71.8,56.7,29.71,SSW,202,2.3,4.3,59,0.00,CLR,,0.00,WeatherDisplay:10.37,2013-06-26 06:07:00,
2013-06-26 02:12:00,72.0,56.8,29.71,South,180,3.5,3.5,59,0.00,CLR,,0.00,WeatherDisplay:10.37,2013-06-26 06:12:00,
2013-06-26 02:17:00,72.0,56.8,29.71,SW,225,4.6,4.9,59,0.00,CLR,,0.00,WeatherDisplay:10.37,2013-06-26 06:17:00,
2013-06-26 02:22:00,72.1,57.0,29.71,SE,135,2.3,2.3,59,0.00,CLR,,0.00,WeatherDisplay:10.37,2013-06-26 06:22:00,
2013-06-26 02:27:00,72.1,57.0,29.71,SW,225,4.6,4.6,59,0.00,CLR,,0.00,WeatherDisplay:10.37,2013-06-26 06:27:00,
2013-06-26 02:32:00,72.3,57.2,29.71,WSW,248,2.3,2.3,59,0.00,CLR,,0.00,WeatherDisplay:10.37,2013-06-26 06:32:00,
2013-06-26 02:37:00,72.1,57.0,29.71,SW,225,2.3,2.3,59,0.00,CLR,,0.00,WeatherDisplay:10.37,2013-06-26 06:37:00,
2013-06-26 02:42:00,72.1,57.0,29.71,SW,225,2.3,2.3,59,0.00,CLR,,0.00,WeatherDisplay:10.37,2013-06-26 06:42:00,
2013-06-26 02:47:00,72.0,56.8,29.71,SSW,202,1.2,1.6,59,0.00,CLR,,0.00,WeatherDisplay:10.37,2013-06-26 06:47:00,
2013-06-26 02:52:00,72.0,56.8,29.71,SW,225,1.2,1.4,59,0.00,CLR,,0.00,WeatherDisplay:10.37,2013-06-26 06:52:00,
2013-06-26 02:57:00,71.8,56.7,29.71,SW,225,1.2,1.2,59,0.00,CLR,,0.00,WeatherDisplay:10.37,2013-06-26 06:57:00,
2013-06-26 03:02:00,71.6,56.5,29.69,SSW,202,2.3,2.3,59,0.00,CLR,,0.00,WeatherDisplay:10.37,2013-06-26 07:02:00,
2013-06-26 03:07:00,71.6,56.5,29.71,SW,225,3.5,3.5,59,0.00,CLR,,0.00,WeatherDisplay:10.37,2013-06-26 07:07:00,
2013-06-26 03:12:00,71.4,56.3,29.71,SW,225,0.0,0.0,59,0.00,CLR,,0.00,WeatherDisplay:10.37,2013-06-26 07:12:00,
2013-06-26 03:17:00,71.2,56.2,29.69,SW,225,1.2,1.2,59,0.00,CLR,,0.00,WeatherDisplay:10.37,2013-06-26 07:17:00,
2013-06-26 03:22:00,71.1,56.0,29.69,SW,225,2.3,2.3,59,0.00,CLR,,0.00,WeatherDisplay:10.37,2013-06-26 07:22:00,
2013-06-26 03:27:00,70.9,55.8,29.69,SW,225,1.2,1.4,59,0.00,CLR,,0.00,WeatherDisplay:10.37,2013-06-26 07:27:00,
2013-06-26 03:32:00,70.9,55.8,29.69,SSW,202,1.2,1.2,59,0.00,CLR,,0.00,WeatherDisplay:10.37,2013-06-26 07:32:00,
2013-06-26 03:37:00,70.7,55.7,29.69,SSW,202,1.2,1.2,59,0.00,CLR,,0.00,WeatherDisplay:10.37,2013-06-26 07:37:00,
2013-06-26 03:42:00,70.5,55.5,29.69,SSW,202,1.2,1.4,59,0.00,CLR,,0.00,WeatherDisplay:10.37,2013-06-26 07:42:00,
2013-06-26 03:47:00,70.5,55.0,29.69,SSW,202,1.2,1.2,58,0.00,CLR,,0.00,WeatherDisplay:10.37,2013-06-26 07:47:00,
2013-06-26 03:52:00,70.3,54.9,29.69,SSW,202,1.2,1.2,58,0.00,CLR,,0.00,WeatherDisplay:10.37,2013-06-26 07:52:00,
2013-06-26 03:57:00,70.2,54.7,29.69,SSW,202,1.2,1.2,58,0.00,CLR,,0.00,WeatherDisplay:10.37,2013-06-26 07:57:00,
2013-06-26 04:02:00,70.2,54.7,29.69,SSW,202,1.2,0.0,58,0.00,CLR,,0.00,WeatherDisplay:10.37,2013-06-26 08:02:00,
2013-06-26 04:07:00,70.0,54.5,29.69,SSW,202,1.2,1.2,58,0.00,CLR,,0.00,WeatherDisplay:10.37,2013-06-26 08:07:00,
2013-06-26 04:12:00,70.0,54.5,29.69,SSW,202,1.2,1.2,58,0.00,CLR,,0.00,WeatherDisplay:10.37,2013-06-26 08:12:00,
2013-06-26 04:17:00,69.8,54.4,29.71,SSW,202,1.2,1.2,58,0.00,CLR,,0.00,WeatherDisplay:10.37,2013-06-26 08:17:00,
2013-06-26 04:22:00,69.8,54.4,29.71,SW,225,2.3,0.0,58,0.00,CLR,,0.00,WeatherDisplay:10.37,2013-06-26 08:22:00,
2013-06-26 04:27:00,69.8,54.4,29.71,WSW,248,0.0,0.5,58,0.00,CLR,,0.00,WeatherDisplay:10.37,2013-06-26 08:27:00,
2013-06-26 04:32:00,69.8,54.4,29.71,NNE,22,1.2,0.0,58,0.00,CLR,,0.00,WeatherDisplay:10.37,2013-06-26 08:32:00,
2013-06-26 04:37:00,69.8,54.4,29.71,WSW,248,1.2,1.2,58,0.00,CLR,,0.00,WeatherDisplay:10.37,2013-06-26 08:37:00,
2013-06-26 04:42:00,69.6,54.2,29.71,West,270,2.3,2.4,58,0.00,CLR,,0.00,WeatherDisplay:10.37,2013-06-26 08:42:00,
2013-06-26 04:47:00,69.8,54.4,29.71,WSW,248,2.3,2.3,58,0.00,CLR,,0.00,WeatherDisplay:10.37,2013-06-26 08:47:00,
2013-06-26 04:52:00,69.8,54.4,29.71,WSW,248,2.3,2.4,58,0.00,CLR,,0.00,WeatherDisplay:10.37,2013-06-26 08:52:00,
2013-06-26 04:57:00,69.8,54.4,29.72,WNW,292,2.3,2.3,58,0.00,CLR,,0.00,WeatherDisplay:10.37,2013-06-26 08:57:00,
2013-06-26 05:02:00,69.8,54.4,29.72,SW,225,1.2,1.2,58,0.00,CLR,,0.00,WeatherDisplay:10.37,2013-06-26 09:02:00,
2013-06-26 05:07:00,69.6,54.2,29.73,SW,225,1.2,1.2,58,0.00,CLR,,0.00,WeatherDisplay:10.37,2013-06-26 09:07:00,
2013-06-26 05:12:00,69.6,54.2,29.73,SW,225,2.3,2.3,58,0.00,CLR,,0.00,WeatherDisplay:10.37,2013-06-26 09:12:00,
2013-06-26 05:17:00,69.6,53.7,29.73,SSW,202,3.5,3.8,57,0.00,CLR,,0.00,WeatherDisplay:10.37,2013-06-26 09:17:00,
2013-06-26 05:22:00,69.6,53.7,29.72,WSW,248,2.3,2.3,57,0.00,CLR,,0.00,WeatherDisplay:10.37,2013-06-26 09:22:00,
2013-06-26 05:27:00,69.8,53.9,29.73,WSW,248,2.3,2.3,57,0.00,CLR,,0.00,WeatherDisplay:10.37,2013-06-26 09:27:00,
2013-06-26 05:32:00,69.8,53.9,29.73,WNW,292,3.5,3.5,57,0.00,CLR,,0.00,WeatherDisplay:10.37,2013-06-26 09:32:00,
2013-06-26 05:37:00,70.0,54.0,29.73,South,180,3.5,3.5,57,0.00,CLR,,0.00,WeatherDisplay:10.37,2013-06-26 09:37:00,
2013-06-26 05:42:00,70.2,54.2,29.72,West,270,4.6,4.6,57,0.00,CLR,,0.00,WeatherDisplay:10.37,2013-06-26 09:42:00,
2013-06-26 05:47:00,70.2,54.2,29.72,SW,225,1.2,1.6,57,0.00,CLR,,0.00,WeatherDisplay:10.37,2013-06-26 09:47:00,
2013-06-26 05:52:00,70.3,54.4,29.72,WSW,248,4.6,4.6,57,0.00,CLR,,0.00,WeatherDisplay:10.37,2013-06-26 09:52:00,
2013-06-26 05:57:00,70.3,54.4,29.73,West,270,2.3,2.4,57,0.00,CLR,,0.00,WeatherDisplay:10.37,2013-06-26 09:57:00,
2013-06-26 06:02:00,70.3,54.4,29.73,WSW,248,2.3,2.9,57,0.00,CLR,,0.00,WeatherDisplay:10.37,2013-06-26 10:02:00,
2013-06-26 06:07:00,70.5,55.0,29.73,WSW,248,5.8,5.8,58,0.00,CLR,,0.00,WeatherDisplay:10.37,2013-06-26 10:07:00,
2013-06-26 06:12:00,70.7,54.7,29.73,West,270,2.3,2.3,57,0.00,CLR,,0.00,WeatherDisplay:10.37,2013-06-26 10:12:00,
2013-06-26 06:17:00,70.9,54.9,29.73,SSW,202,1.2,1.2,57,0.00,CLR,,0.00,WeatherDisplay:10.37,2013-06-26 10:17:00,
2013-06-26 06:22:00,70.9,54.9,29.73,West,270,2.3,2.3,57,0.00,CLR,,0.00,WeatherDisplay:10.37,2013-06-26 10:22:00,
2013-06-26 06:27:00,71.1,55.1,29.73,WSW,248,1.2,1.2,57,0.00,CLR,,0.00,WeatherDisplay:10.37,2013-06-26 10:27:00,
2013-06-26 06:32:00,71.4,55.4,29.73,WNW,292,1.2,1.2,57,0.00,CLR,,0.00,WeatherDisplay:10.37,2013-06-26 10:32:00,
2013-06-26 06:37:00,71.6,55.6,29.73,SW,225,1.2,1.2,57,0.00,CLR,,0.00,WeatherDisplay:10.37,2013-06-26 10:37:00,
2013-06-26 06:42:00,71.8,55.7,29.73,SSW,202,1.2,1.2,57,0.00,CLR,,0.00,WeatherDisplay:10.37,2013-06-26 10:42:00,
2013-06-26 06:47:00,72.0,55.9,29.73,SW,225,2.3,2.3,57,0.00,CLR,,0.00,WeatherDisplay:10.37,2013-06-26 10:47:00,
2013-06-26 06:52:00,72.3,56.2,29.73,SW,225,1.2,2.4,57,0.00,CLR,,0.00,WeatherDisplay:10.37,2013-06-26 10:52:00,
2013-06-26 06:57:00,72.5,56.4,29.73,SSW,202,2.3,2.3,57,0.00,CLR,,0.00,WeatherDisplay:10.37,2013-06-26 10:57:00,
2013-06-26 07:02:00,72.7,56.6,29.72,SW,225,2.3,2.3,57,0.00,CLR,,0.00,WeatherDisplay:10.37,2013-06-26 11:02:00,
2013-06-26 07:07:00,73.0,56.9,29.72,SSW,202,2.3,2.3,57,0.00,CLR,,0.00,WeatherDisplay:10.37,2013-06-26 11:07:00,
2013-06-26 07:12:00,73.4,57.2,29.72,WSW,248,1.2,2.4,57,0.00,CLR,,0.00,WeatherDisplay:10.37,2013-06-26 11:12:00,
2013-06-26 07:18:00,73.8,58.1,29.72,SW,225,1.2,1.6,58,0.00,CLR,,0.00,WeatherDisplay:10.37,2013-06-26 11:18:00,
2013-06-26 07:23:00,74.1,58.4,29.73,SW,225,1.2,1.6,58,0.00,CLR,,0.00,WeatherDisplay:10.37,2013-06-26 11:23:00,
2013-06-26 07:28:00,74.5,58.7,29.73,South,180,2.3,2.3,58,0.00,CLR,,0.00,WeatherDisplay:10.37,2013-06-26 11:28:00,
2013-06-26 07:33:00,74.8,59.1,29.73,SSW,202,3.5,3.5,58,0.00,CLR,,0.00,WeatherDisplay:10.37,2013-06-26 11:33:00,
2013-06-26 07:38:00,75.2,59.9,29.73,South,180,2.3,2.3,59,0.00,CLR,,0.00,WeatherDisplay:10.37,2013-06-26 11:38:00,
2013-06-26 07:43:00,75.6,60.2,29.73,SSW,202,2.3,2.3,59,0.00,CLR,,0.00,WeatherDisplay:10.37,2013-06-26 11:43:00,
2013-06-26 07:48:00,75.7,60.4,29.74,WSW,248,2.3,2.9,59,0.00,CLR,,0.00,WeatherDisplay:10.37,2013-06-26 11:48:00,
2013-06-26 07:53:00,75.9,60.6,29.74,SSE,158,2.3,2.3,59,0.00,CLR,,0.00,WeatherDisplay:10.37,2013-06-26 11:53:00,
2013-06-26 07:58:00,75.9,60.6,29.74,WSW,248,1.2,1.2,59,0.00,CLR,,0.00,WeatherDisplay:10.37,2013-06-26 11:58:00,
2013-06-26 08:03:00,76.3,60.9,29.74,SW,225,2.3,2.3,59,0.00,CLR,,0.00,WeatherDisplay:10.37,2013-06-26 12:03:00,
2013-06-26 08:08:00,76.6,61.2,29.74,SSW,202,1.2,2.2,59,0.00,CLR,,0.00,WeatherDisplay:10.37,2013-06-26 12:08:00,
2013-06-26 08:13:00,77.0,61.6,29.74,SW,225,1.2,1.2,59,0.00,CLR,,0.00,WeatherDisplay:10.37,2013-06-26 12:13:00,
2013-06-26 08:18:00,77.4,61.9,29.74,SW,225,2.3,2.4,59,0.00,CLR,,0.00,WeatherDisplay:10.37,2013-06-26 12:18:00,
2013-06-26 08:23:00,77.7,62.2,29.74,WSW,248,2.3,2.9,59,0.00,CLR,,0.00,WeatherDisplay:10.37,2013-06-26 12:23:00,
2013-06-26 08:28:00,78.1,62.6,29.74,SSW,202,2.3,2.3,59,0.00,CLR,,0.00,WeatherDisplay:10.37,2013-06-26 12:28:00,
2013-06-26 08:33:00,78.8,62.8,29.74,WNW,292,2.3,2.3,58,0.00,CLR,,0.00,WeatherDisplay:10.37,2013-06-26 12:33:00,
2013-06-26 08:38:00,79.7,63.6,29.74,SW,225,2.3,2.3,58,0.00,CLR,,0.00,WeatherDisplay:10.37,2013-06-26 12:38:00,
2013-06-26 08:43:00,80.6,64.5,29.74,SSW,202,1.2,1.4,58,0.00,CLR,,0.00,WeatherDisplay:10.37,2013-06-26 12:43:00,
2013-06-26 08:48:00,80.8,64.1,29.74,West,270,3.5,3.5,57,0.00,CLR,,0.00,WeatherDisplay:10.37,2013-06-26 12:48:00,
2013-06-26 08:53:00,81.3,64.6,29.74,NW,315,4.6,4.6,57,0.00,CLR,,0.00,WeatherDisplay:10.37,2013-06-26 12:53:00,
2013-06-26 08:58:00,82.0,65.3,29.74,South,180,2.3,2.3,57,0.00,CLR,,0.00,WeatherDisplay:10.37,2013-06-26 12:58:00,
2013-06-26 09:03:00,82.6,65.8,29.74,West,270,4.6,4.6,57,0.00,CLR,,0.00,WeatherDisplay:10.37,2013-06-26 13:03:00,
2013-06-26 09:08:00,83.1,66.3,29.74,NW,315,3.5,3.5,57,0.00,CLR,,0.00,WeatherDisplay:10.37,2013-06-26 13:08:00,
2013-06-26 09:13:00,83.5,67.1,29.74,WSW,248,2.3,2.6,58,0.00,CLR,,0.00,WeatherDisplay:10.37,2013-06-26 13:13:00,
2013-06-26 09:18:00,84.2,67.3,29.74,West,270,2.3,2.3,57,0.00,CLR,,0.00,WeatherDisplay:10.37,2013-06-26 13:18:00,
2013-06-26 09:23:00,84.9,68.0,29.74,SSW,202,1.2,1.4,57,0.00,CLR,,0.00,WeatherDisplay:10.37,2013-06-26 13:23:00,
2013-06-26 09:28:00,85.3,68.3,29.74,SE,135,1.2,1.2,57,0.00,CLR,,0.00,WeatherDisplay:10.37,2013-06-26 13:28:00,
2013-06-26 09:33:00,85.6,68.7,29.74,SW,225,1.2,1.2,57,0.00,CLR,,0.00,WeatherDisplay:10.37,2013-06-26 13:33:00,
2013-06-26 09:38:00,85.6,68.7,29.74,West,270,2.3,2.4,57,0.00,CLR,,0.00,WeatherDisplay:10.37,2013-06-26 13:38:00,
2013-06-26 09:43:00,86.0,69.0,29.74,SSW,202,3.5,3.5,57,0.00,CLR,,0.00,WeatherDisplay:10.37,2013-06-26 13:43:00,
2013-06-26 09:48:00,86.4,69.3,29.74,SSW,202,2.3,2.4,57,0.00,CLR,,0.00,WeatherDisplay:10.37,2013-06-26 13:48:00,
2013-06-26 09:53:00,86.7,69.7,29.73,WSW,248,2.3,2.4,57,0.00,CLR,,0.00,WeatherDisplay:10.37,2013-06-26 13:53:00,
2013-06-26 09:58:00,87.1,70.0,29.73,South,180,2.3,2.3,57,0.00,CLR,,0.00,WeatherDisplay:10.37,2013-06-26 13:58:00,
2013-06-26 10:03:00,87.4,70.3,29.74,SSW,202,2.3,2.3,57,0.00,CLR,,0.00,WeatherDisplay:10.37,2013-06-26 14:03:00,
2013-06-26 10:08:00,87.4,70.3,29.74,SW,225,2.3,2.6,57,0.00,CLR,,0.00,WeatherDisplay:10.37,2013-06-26 14:08:00,
2013-06-26 10:13:00,88.0,70.8,29.74,South,180,3.5,3.5,57,0.00,CLR,,0.00,WeatherDisplay:10.37,2013-06-26 14:13:00,
2013-06-26 10:18:00,88.3,71.2,29.74,SSW,202,2.3,2.3,57,0.00,CLR,,0.00,WeatherDisplay:10.37,2013-06-26 14:18:00,
2013-06-26 10:23:00,88.7,71.5,29.74,SSW,202,4.6,4.6,57,0.00,CLR,,0.00,WeatherDisplay:10.37,2013-06-26 14:23:00,
2013-06-26 10:28:00,88.3,71.2,29.74,NW,315,2.3,2.4,57,0.00,CLR,,0.00,WeatherDisplay:10.37,2013-06-26 14:28:00,
2013-06-26 10:33:00,87.8,70.7,29.74,South,180,3.5,3.6,57,0.00,CLR,,0.00,WeatherDisplay:10.37,2013-06-26 14:33:00,
2013-06-26 10:38:00,87.3,70.2,29.74,WSW,248,4.6,4.6,57,0.00,CLR,,0.00,WeatherDisplay:10.37,2013-06-26 14:38:00,
2013-06-26 10:43:00,86.9,70.3,29.74,SW,225,4.6,4.7,58,0.00,CLR,,0.00,WeatherDisplay:10.37,2013-06-26 14:43:00,
2013-06-26 10:48:00,87.1,70.0,29.74,SW,225,4.6,4.6,57,0.00,CLR,,0.00,WeatherDisplay:10.37,2013-06-26 14:48:00,
2013-06-26 10:53:00,87.1,70.0,29.74,SW,225,2.3,2.3,57,0.00,CLR,,0.00,WeatherDisplay:10.37,2013-06-26 14:53:00,
2013-06-26 10:58:00,87.1,70.0,29.74,SW,225,1.2,1.2,57,0.00,CLR,,0.00,WeatherDisplay:10.37,2013-06-26 14:58:00,
2013-06-26 11:03:00,87.8,70.7,29.74,South,180,2.3,2.4,57,0.00,CLR,,0.00,WeatherDisplay:10.37,2013-06-26 15:03:00,
2013-06-26 11:08:00,88.2,71.0,29.74,SW,225,2.3,2.3,57,0.00,CLR,,0.00,WeatherDisplay:10.37,2013-06-26 15:08:00,
2013-06-26 11:13:00,88.0,70.8,29.74,SW,225,4.6,4.6,57,0.00,CLR,,0.00,WeatherDisplay:10.37,2013-06-26 15:13:00,
2013-06-26 11:18:00,88.2,71.0,29.74,SSW,202,2.3,2.3,57,0.00,CLR,,0.00,WeatherDisplay:10.37,2013-06-26 15:18:00,
2013-06-26 11:23:00,88.0,70.8,29.74,SSW,202,2.3,2.6,57,0.00,CLR,,0.00,WeatherDisplay:10.37,2013-06-26 15:23:00,
2013-06-26 11:28:00,87.8,70.7,29.74,WSW,248,3.5,3.5,57,0.00,CLR,,0.00,WeatherDisplay:10.37,2013-06-26 15:28:00,
2013-06-26 11:33:00,88.3,71.2,29.74,SW,225,2.3,2.3,57,0.00,CLR,,0.00,WeatherDisplay:10.37,2013-06-26 15:33:00,
2013-06-26 11:38:00,88.9,71.7,29.74,SSW,202,4.6,4.6,57,0.00,CLR,,0.00,WeatherDisplay:10.37,2013-06-26 15:38:00,
2013-06-26 11:43:00,88.9,71.7,29.75,WSW,248,3.5,3.5,57,0.00,CLR,,0.00,WeatherDisplay:10.37,2013-06-26 15:43:00,
2013-06-26 11:48:00,89.2,72.0,29.75,SW,225,2.3,2.3,57,0.00,CLR,,0.00,WeatherDisplay:10.37,2013-06-26 15:48:00,
2013-06-26 11:53:00,88.9,71.2,29.75,SSE,158,4.6,4.6,56,0.00,CLR,,0.00,WeatherDisplay:10.37,2013-06-26 15:53:00,
2013-06-26 11:58:00,87.8,70.7,29.75,SW,225,5.8,5.8,57,0.00,CLR,,0.00,WeatherDisplay:10.37,2013-06-26 15:58:00,
2013-06-26 12:03:00,87.8,70.7,29.75,SSW,202,3.5,3.5,57,0.00,CLR,,0.00,WeatherDisplay:10.37,2013-06-26 16:03:00,
2013-06-26 12:08:00,87.8,70.7,29.75,SSW,202,2.3,2.3,57,0.00,CLR,,0.00,WeatherDisplay:10.37,2013-06-26 16:08:00,
2013-06-26 12:13:00,88.9,71.7,29.75,SW,225,3.5,3.5,57,0.00,CLR,,0.00,WeatherDisplay:10.37,2013-06-26 16:13:00,
2013-06-26 12:18:00,89.6,71.8,29.74,WSW,248,2.3,2.4,56,0.00,CLR,,0.00,WeatherDisplay:10.37,2013-06-26 16:18:00,
2013-06-26 12:24:00,89.8,72.0,29.74,SSW,202,3.5,4.0,56,0.00,CLR,,0.00,WeatherDisplay:10.37,2013-06-26 16:24:00,
2013-06-26 12:29:00,90.1,72.3,29.74,South,180,2.3,5.9,56,0.00,CLR,,0.00,WeatherDisplay:10.37,2013-06-26 16:29:00,
2013-06-26 12:34:00,90.3,72.5,29.74,SW,225,3.5,3.5,56,0.00,CLR,,0.00,WeatherDisplay:10.37,2013-06-26 16:34:00,
2013-06-26 12:39:00,90.7,72.8,29.74,SSW,202,5.8,5.8,56,0.00,CLR,,0.00,WeatherDisplay:10.37,2013-06-26 16:39:00,
2013-06-26 12:44:00,90.7,72.3,29.74,SW,225,3.5,3.5,55,0.00,CLR,,0.00,WeatherDisplay:10.37,2013-06-26 16:44:00,
2013-06-26 12:49:00,90.0,71.6,29.74,SSW,202,3.5,5.2,55,0.00,CLR,,0.00,WeatherDisplay:10.37,2013-06-26 16:49:00,
2013-06-26 12:54:00,90.3,72.0,29.74,SW,225,6.9,6.9,55,0.00,CLR,,0.00,WeatherDisplay:10.37,2013-06-26 16:54:00,
2013-06-26 12:59:00,90.9,72.5,29.74,SSW,202,4.6,5.2,55,0.00,CLR,,0.00,WeatherDisplay:10.37,2013-06-26 16:59:00,
2013-06-26 13:04:00,91.0,72.6,29.74,SW,225,5.8,5.8,55,0.00,CLR,,0.00,WeatherDisplay:10.37,2013-06-26 17:04:00,
2013-06-26 13:09:00,91.4,73.0,29.73,SSW,202,4.6,4.6,55,0.00,CLR,,0.00,WeatherDisplay:10.37,2013-06-26 17:09:00,
2013-06-26 13:14:00,91.8,72.7,29.73,WSW,248,5.8,5.9,54,0.00,CLR,,0.00,WeatherDisplay:10.37,2013-06-26 17:14:00,
2013-06-26 13:19:00,91.8,71.6,29.73,WSW,248,4.6,4.9,52,0.00,CLR,,0.00,WeatherDisplay:10.37,2013-06-26 17:19:00,
2013-06-26 13:24:00,91.2,72.2,29.72,West,270,5.8,5.8,54,0.00,CLR,,0.00,WeatherDisplay:10.37,2013-06-26 17:24:00,
2013-06-26 13:29:00,91.2,71.7,29.73,SSW,202,3.5,3.5,53,0.00,CLR,,0.00,WeatherDisplay:10.37,2013-06-26 17:29:00,
2013-06-26 13:34:00,91.0,72.1,29.73,SW,225,5.8,5.8,54,0.00,CLR,,0.00,WeatherDisplay:10.37,2013-06-26 17:34:00,
2013-06-26 13:39:00,91.2,72.2,29.73,SSW,202,4.6,4.9,54,0.00,CLR,,0.00,WeatherDisplay:10.37,2013-06-26 17:39:00,
2013-06-26 13:44:00,90.3,71.4,29.73,South,180,4.6,4.7,54,0.00,CLR,,0.00,WeatherDisplay:10.37,2013-06-26 17:44:00,
2013-06-26 13:49:00,90.3,72.0,29.73,West,270,4.6,4.9,55,0.00,CLR,,0.00,WeatherDisplay:10.37,2013-06-26 17:49:00,
2013-06-26 13:54:00,90.9,72.5,29.73,SW,225,4.6,4.6,55,0.00,CLR,,0.00,WeatherDisplay:10.37,2013-06-26 17:54:00,
2013-06-26 13:59:00,90.7,72.3,29.72,SW,225,4.6,4.6,55,0.00,CLR,,0.00,WeatherDisplay:10.37,2013-06-26 17:59:00,
2013-06-26 14:04:00,90.5,72.7,29.72,WSW,248,2.3,2.3,56,0.00,CLR,,0.00,WeatherDisplay:10.37,2013-06-26 18:04:00,
2013-06-26 14:09:00,90.7,72.8,29.72,South,180,3.5,3.5,56,0.00,CLR,,0.00,WeatherDisplay:10.37,2013-06-26 18:09:00,
2013-06-26 14:14:00,90.7,72.3,29.72,SSE,158,4.6,4.6,55,0.00,CLR,,0.00,WeatherDisplay:10.37,2013-06-26 18:14:00,
2013-06-26 14:19:00,90.9,73.0,29.72,SW,225,3.5,3.8,56,0.00,CLR,,0.00,WeatherDisplay:10.37,2013-06-26 18:19:00,
2013-06-26 14:24:00,91.4,73.0,29.72,WSW,248,3.5,3.6,55,0.00,CLR,,0.00,WeatherDisplay:10.37,2013-06-26 18:24:00,
2013-06-26 14:29:00,91.6,73.1,29.72,SW,225,3.5,3.6,55,0.00,CLR,,0.00,WeatherDisplay:10.37,2013-06-26 18:29:00,
2013-06-26 14:34:00,90.7,71.7,29.72,SW,225,5.8,6.2,54,0.00,CLR,,0.00,WeatherDisplay:10.37,2013-06-26 18:34:00,
2013-06-26 14:39:00,89.4,71.1,29.72,SSW,202,5.8,5.8,55,0.00,CLR,,0.00,WeatherDisplay:10.37,2013-06-26 18:39:00,
2013-06-26 14:44:00,88.3,70.7,29.72,SW,225,2.3,2.4,56,0.00,CLR,,0.00,WeatherDisplay:10.37,2013-06-26 18:44:00,
2013-06-26 14:49:00,88.7,71.0,29.73,SSW,202,8.1,8.1,56,0.00,CLR,,0.00,WeatherDisplay:10.37,2013-06-26 18:49:00,
2013-06-26 14:54:00,89.2,72.0,29.72,WSW,248,4.6,4.6,57,0.00,CLR,,0.00,WeatherDisplay:10.37,2013-06-26 18:54:00,
2013-06-26 14:59:00,88.9,71.2,29.72,SW,225,5.8,5.8,56,0.00,CLR,,0.00,WeatherDisplay:10.37,2013-06-26 18:59:00,
2013-06-26 15:04:00,88.5,71.3,29.73,SSW,202,4.6,4.6,57,0.00,CLR,,0.00,WeatherDisplay:10.37,2013-06-26 19:04:00,
2013-06-26 15:09:00,88.5,71.3,29.73,SW,225,4.6,4.6,57,0.00,CLR,,0.00,WeatherDisplay:10.37,2013-06-26 19:09:00,
2013-06-26 15:14:00,87.8,70.7,29.73,SSW,202,6.9,6.9,57,0.00,CLR,,0.00,WeatherDisplay:10.37,2013-06-26 19:14:00,
2013-06-26 15:19:00,87.4,70.3,29.73,WSW,248,10.4,10.4,57,0.00,CLR,,0.00,WeatherDisplay:10.37,2013-06-26 19:19:00,
2013-06-26 15:24:00,86.9,69.8,29.73,SW,225,5.8,5.8,57,0.00,CLR,,0.00,WeatherDisplay:10.37,2013-06-26 19:24:00,
2013-06-26 15:29:00,86.0,69.5,29.72,SW,225,8.1,8.5,58,0.00,CLR,,0.00,WeatherDisplay:10.37,2013-06-26 19:29:00,
2013-06-26 15:34:00,85.5,69.0,29.72,SW,225,6.9,6.9,58,0.00,CLR,,0.00,WeatherDisplay:10.37,2013-06-26 19:34:00,
2013-06-26 15:39:00,84.4,68.5,29.73,WSW,248,9.2,9.2,59,0.00,CLR,,0.00,WeatherDisplay:10.37,2013-06-26 19:39:00,
2013-06-26 15:44:00,84.0,68.1,29.73,SW,225,6.9,6.9,59,0.00,CLR,,0.00,WeatherDisplay:10.37,2013-06-26 19:44:00,
2013-06-26 15:49:00,83.5,67.6,29.73,West,270,10.4,10.4,59,0.00,CLR,,0.00,WeatherDisplay:10.37,2013-06-26 19:49:00,
2013-06-26 15:54:00,82.9,66.6,29.73,WSW,248,4.6,4.6,58,0.00,CLR,,0.00,WeatherDisplay:10.37,2013-06-26 19:54:00,
2013-06-26 15:59:00,82.6,66.8,29.73,ESE,112,5.8,5.8,59,0.00,CLR,,0.00,WeatherDisplay:10.37,2013-06-26 19:59:00,
2013-06-26 16:04:00,82.4,66.6,29.74,West,270,5.8,6.0,59,0.00,CLR,,0.00,WeatherDisplay:10.37,2013-06-26 20:04:00,
2013-06-26 16:09:00,82.4,66.6,29.73,WNW,292,5.8,5.8,59,0.00,CLR,,0.00,WeatherDisplay:10.37,2013-06-26 20:09:00,
2013-06-26 16:14:00,82.6,66.8,29.74,West,270,4.6,4.6,59,0.00,CLR,,0.00,WeatherDisplay:10.37,2013-06-26 20:14:00,
2013-06-26 16:19:00,82.4,66.6,29.73,West,270,4.6,4.6,59,0.00,CLR,,0.00,WeatherDisplay:10.37,2013-06-26 20:19:00,
2013-06-26 16:24:00,82.4,66.6,29.73,SW,225,2.3,2.4,59,0.00,CLR,,0.00,WeatherDisplay:10.37,2013-06-26 20:24:00,
2013-06-26 16:29:00,82.8,67.0,29.73,SW,225,2.3,2.4,59,0.00,CLR,,0.00,WeatherDisplay:10.37,2013-06-26 20:29:00,
2013-06-26 16:34:00,83.3,67.5,29.73,ESE,112,4.6,4.7,59,0.00,CLR,,0.00,WeatherDisplay:10.37,2013-06-26 20:34:00,
2013-06-26 16:39:00,83.1,66.8,29.73,NE,45,4.6,4.6,58,0.00,CLR,,0.00,WeatherDisplay:10.37,2013-06-26 20:39:00,
2013-06-26 16:44:00,83.1,66.8,29.73,East,90,2.3,2.9,58,0.00,CLR,,0.00,WeatherDisplay:10.37,2013-06-26 20:44:00,
2013-06-26 16:49:00,82.4,66.6,29.74,SE,135,0.0,0.5,59,0.00,CLR,,0.00,WeatherDisplay:10.37,2013-06-26 20:49:00,
2013-06-26 16:54:00,81.7,66.0,29.74,SE,135,4.6,4.6,59,0.00,CLR,,0.00,WeatherDisplay:10.37,2013-06-26 20:54:00,
2013-06-26 16:59:00,81.1,65.5,29.74,NE,45,1.2,1.2,59,0.00,CLR,,0.00,WeatherDisplay:10.37,2013-06-26 20:59:00,
2013-06-26 17:04:00,81.0,65.3,29.73,NE,45,2.3,2.3,59,0.00,CLR,,0.00,WeatherDisplay:10.37,2013-06-26 21:04:00,
2013-06-26 17:09:00,80.8,65.1,29.73,NE,45,2.3,2.4,59,0.00,CLR,,0.00,WeatherDisplay:10.37,2013-06-26 21:09:00,
2013-06-26 17:14:00,80.6,64.9,29.72,ESE,112,3.5,3.5,59,0.00,CLR,,0.00,WeatherDisplay:10.37,2013-06-26 21:14:00,
2013-06-26 17:19:00,80.1,64.4,29.72,ESE,112,3.5,3.5,59,0.00,CLR,,0.00,WeatherDisplay:10.37,2013-06-26 21:19:00,
2013-06-26 17:24:00,79.9,64.8,29.71,ENE,68,2.3,2.3,60,0.00,CLR,,0.00,WeatherDisplay:10.37,2013-06-26 21:24:00,
2013-06-26 17:29:00,79.5,64.4,29.71,SSE,158,2.3,2.3,60,0.00,CLR,,0.00,WeatherDisplay:10.37,2013-06-26 21:29:00,
2013-06-26 17:34:00,79.0,63.9,29.71,SSE,158,2.4,2.4,60,0.00,CLR,,0.00,WeatherDisplay:10.37,2013-06-26 21:34:00,
2013-06-26 17:40:00,78.6,63.6,29.72,SE,135,2.3,0.0,60,0.00,CLR,,0.00,WeatherDisplay:10.37,2013-06-26 21:40:00,
2013-06-26 17:45:00,78.6,63.6,29.73,SE,135,1.2,1.2,60,0.00,CLR,,0.00,WeatherDisplay:10.37,2013-06-26 21:45:00,
2013-06-26 17:50:00,78.6,63.6,29.73,ESE,112,1.2,1.2,60,0.00,CLR,,0.00,WeatherDisplay:10.37,2013-06-26 21:50:00,
2013-06-26 17:55:00,78.6,63.6,29.73,ESE,112,0.0,0.0,60,0.00,CLR,,0.00,WeatherDisplay:10.37,2013-06-26 21:55:00,
2013-06-26 18:00:00,78.8,63.3,29.74,ESE,112,0.0,0.5,59,0.00,CLR,,0.00,WeatherDisplay:10.37,2013-06-26 22:00:00,
2013-06-26 18:05:00,79.0,63.4,29.73,North,0,0.0,0.5,59,0.00,CLR,,0.00,WeatherDisplay:10.37,2013-06-26 22:05:00,
2013-06-26 18:10:00,79.2,63.6,29.73,North,0,0.0,0.0,59,0.00,CLR,,0.00,WeatherDisplay:10.37,2013-06-26 22:10:00,
2013-06-26 18:15:00,79.2,63.6,29.73,North,0,0.0,0.0,59,0.00,CLR,,0.00,WeatherDisplay:10.37,2013-06-26 22:15:00,
2013-06-26 18:20:00,79.2,63.6,29.73,North,0,0.0,0.2,59,0.00,CLR,,0.00,WeatherDisplay:10.37,2013-06-26 22:20:00,
2013-06-26 18:25:00,79.3,63.8,29.73,NW,315,0.0,0.2,59,0.00,CLR,,0.00,WeatherDisplay:10.37,2013-06-26 22:25:00,
2013-06-26 18:30:00,79.5,63.9,29.74,NNE,22,2.3,2.3,59,0.00,CLR,,0.00,WeatherDisplay:10.37,2013-06-26 22:30:00,
2013-06-26 18:35:00,79.2,63.6,29.74,NE,45,2.3,2.3,59,0.00,CLR,,0.00,WeatherDisplay:10.37,2013-06-26 22:35:00,
2013-06-26 18:40:00,79.2,63.6,29.74,NE,45,1.2,1.2,59,0.00,CLR,,0.00,WeatherDisplay:10.37,2013-06-26 22:40:00,
2013-06-26 18:45:00,79.0,63.4,29.74,NE,45,2.3,2.3,59,0.00,CLR,,0.00,WeatherDisplay:10.37,2013-06-26 22:45:00,
2013-06-26 18:50:00,78.8,63.3,29.74,ENE,58,0.0,2.0,59,0.00,CLR,,0.00,WeatherDisplay:10.37,2013-06-26 22:50:00,
2013-06-26 18:55:00,78.8,63.3,29.74,ENE,68,0.0,0.2,59,0.00,CLR,,0.00,WeatherDisplay:10.37,2013-06-26 22:55:00,
2013-06-26 19:00:00,78.6,63.1,29.74,ENE,68,0.0,0.0,59,0.00,CLR,,0.00,WeatherDisplay:10.37,2013-06-26 23:00:00,
2013-06-26 19:05:00,78.4,62.9,29.75,ENE,68,0.0,0.0,59,0.00,CLR,,0.00,WeatherDisplay:10.37,2013-06-26 23:05:00,
2013-06-26 19:10:00,78.4,62.9,29.75,ENE,68,0.0,0.0,59,0.00,CLR,,0.00,WeatherDisplay:10.37,2013-06-26 23:10:00,
2013-06-26 19:15:00,78.3,62.8,29.75,NE,45,1.2,1.2,59,0.00,CLR,,0.00,WeatherDisplay:10.37,2013-06-26 23:15:00,
2013-06-26 19:20:00,78.1,62.6,29.75,North,0,1.2,1.2,59,0.00,CLR,,0.00,WeatherDisplay:10.37,2013-06-26 23:20:00,
2013-06-26 19:25:00,78.1,62.6,29.75,North,0,2.3,2.3,59,0.00,CLR,,0.00,WeatherDisplay:10.37,2013-06-26 23:25:00,
2013-06-26 19:30:00,77.9,62.4,29.76,North,0,0.0,0.0,59,0.00,CLR,,0.00,WeatherDisplay:10.37,2013-06-26 23:30:00,
2013-06-26 19:35:00,77.7,62.2,29.76,North,0,0.0,0.0,59,0.00,CLR,,0.00,WeatherDisplay:10.37,2013-06-26 23:35:00,
2013-06-26 19:40:00,77.7,61.8,29.77,NNW,338,1.2,1.2,58,0.00,CLR,,0.00,WeatherDisplay:10.37,2013-06-26 23:40:00,
2013-06-26 19:45:00,77.5,62.1,29.77,North,0,1.2,1.2,59,0.00,CLR,,0.00,WeatherDisplay:10.37,2013-06-26 23:45:00,
2013-06-26 19:50:00,77.4,61.9,29.77,North,0,0.0,0.0,59,0.00,CLR,,0.00,WeatherDisplay:10.37,2013-06-26 23:50:00,
2013-06-26 19:55:00,77.2,61.3,29.77,NNE,22,2.3,2.3,58,0.00,CLR,,0.00,WeatherDisplay:10.37,2013-06-26 23:55:00,
2013-06-26 20:00:00,77.0,61.6,29.77,North,0,6.9,6.9,59,0.00,CLR,,0.00,WeatherDisplay:10.37,2013-06-27 00:00:00,
2013-06-26 20:05:00,76.6,61.2,29.77,NE,45,4.6,5.2,59,0.00,CLR,,0.00,WeatherDisplay:10.37,2013-06-27 00:05:00,
2013-06-26 20:10:00,76.3,60.9,29.77,NNE,22,4.6,4.6,59,0.00,CLR,,0.00,WeatherDisplay:10.37,2013-06-27 00:10:00,
2013-06-26 20:15:00,75.9,60.6,29.77,NNE,22,2.3,2.3,59,0.00,CLR,,0.00,WeatherDisplay:10.37,2013-06-27 00:15:00,
2013-06-26 20:20:00,75.6,60.2,29.77,North,0,1.2,1.2,59,0.00,CLR,,0.00,WeatherDisplay:10.37,2013-06-27 00:20:00,
2013-06-26 20:25:00,75.6,60.2,29.77,NNE,22,1.2,1.2,59,0.00,CLR,,0.00,WeatherDisplay:10.37,2013-06-27 00:25:00,
2013-06-26 20:30:00,75.4,60.1,29.77,NE,45,0.0,0.2,59,0.00,CLR,,0.00,WeatherDisplay:10.37,2013-06-27 00:30:00,
2013-06-26 20:35:00,75.4,60.1,29.77,NNE,22,3.5,3.5,59,0.00,CLR,,0.00,WeatherDisplay:10.37,2013-06-27 00:35:00,
2013-06-26 20:40:00,75.2,59.9,29.77,North,0,0.0,0.0,59,0.00,CLR,,0.00,WeatherDisplay:10.37,2013-06-27 00:40:00,
2013-06-26 20:45:00,75.2,59.9,29.77,North,0,0.0,0.5,59,0.00,CLR,,0.00,WeatherDisplay:10.37,2013-06-27 00:45:00,
2013-06-26 20:50:00,75.0,59.7,29.77,North,0,0.0,0.0,59,0.00,CLR,,0.00,WeatherDisplay:10.37,2013-06-27 00:50:00,
2013-06-26 20:55:00,75.0,59.7,29.77,North,0,0.0,0.0,59,0.00,CLR,,0.00,WeatherDisplay:10.37,2013-06-27 00:55:00,
2013-06-26 21:00:00,74.8,60.0,29.77,ESE,112,0.0,0.0,60,0.00,CLR,,0.00,WeatherDisplay:10.37,2013-06-27 01:00:00,
2013-06-26 21:05:00,74.8,60.0,29.79,ESE,112,0.0,0.0,60,0.00,CLR,,0.00,WeatherDisplay:10.37,2013-06-27 01:05:00,
2013-06-26 21:10:00,74.7,59.9,29.79,ESE,112,0.0,0.0,60,0.00,CLR,,0.00,WeatherDisplay:10.37,2013-06-27 01:10:00,
2013-06-26 21:15:00,74.1,59.3,29.79,SE,135,2.3,2.3,60,0.00,CLR,,0.00,WeatherDisplay:10.37,2013-06-27 01:15:00,
2013-06-26 21:20:00,74.1,59.3,29.80,ESE,112,1.2,1.2,60,0.00,CLR,,0.00,WeatherDisplay:10.37,2013-06-27 01:20:00,
2013-06-26 21:25:00,73.4,58.7,29.79,NE,45,1.2,1.2,60,0.00,CLR,,0.00,WeatherDisplay:10.37,2013-06-27 01:25:00,
2013-06-26 21:30:00,73.0,58.3,29.79,NE,45,2.3,2.3,60,0.00,CLR,,0.00,WeatherDisplay:10.37,2013-06-27 01:30:00,
2013-06-26 21:35:00,73.0,58.3,29.79,ENE,68,2.3,2.3,60,0.00,CLR,,0.00,WeatherDisplay:10.37,2013-06-27 01:35:00,
2013-06-26 21:40:00,72.9,58.2,29.80,ENE,68,1.2,1.2,60,0.00,CLR,,0.00,WeatherDisplay:10.37,2013-06-27 01:40:00,
2013-06-26 21:45:00,72.7,58.5,29.80,SE,135,0.0,0.0,61,0.00,CLR,,0.00,WeatherDisplay:10.37,2013-06-27 01:45:00,
2013-06-26 21:50:00,72.3,58.1,29.80,SE,135,0.0,0.0,61,0.00,CLR,,0.00,WeatherDisplay:10.37,2013-06-27 01:50:00,
2013-06-26 21:55:00,72.3,58.1,29.80,SE,135,0.0,0.0,61,0.00,CLR,,0.00,WeatherDisplay:10.37,2013-06-27 01:55:00,
2013-06-26 22:00:00,72.0,57.8,29.81,SE,135,0.0,0.2,61,0.00,CLR,,0.00,WeatherDisplay:10.37,2013-06-27 02:00:00,
2013-06-26 22:05:00,72.0,57.8,29.81,East,90,0.0,0.5,61,0.00,CLR,,0.00,WeatherDisplay:10.37,2013-06-27 02:05:00,
2013-06-26 22:10:00,71.8,57.6,29.80,East,90,0.0,0.0,61,0.00,CLR,,0.00,WeatherDisplay:10.37,2013-06-27 02:10:00,
2013-06-26 22:15:00,71.6,57.4,29.80,East,90,1.2,1.2,61,0.00,CLR,,0.00,WeatherDisplay:10.37,2013-06-27 02:15:00,
2013-06-26 22:20:00,71.6,57.4,29.80,ESE,112,0.0,0.0,61,0.00,CLR,,0.00,WeatherDisplay:10.37,2013-06-27 02:20:00,
2013-06-26 22:25:00,71.6,57.4,29.80,ESE,112,0.0,0.0,61,0.00,CLR,,0.00,WeatherDisplay:10.37,2013-06-27 02:25:00,
2013-06-26 22:30:00,71.4,57.3,29.80,ESE,112,0.0,0.0,61,0.00,CLR,,0.00,WeatherDisplay:10.37,2013-06-27 02:30:00,
2013-06-26 22:35:00,71.4,57.3,29.81,ESE,112,0.0,0.0,61,0.00,CLR,,0.00,WeatherDisplay:10.37,2013-06-27 02:35:00,
2013-06-26 22:40:00,71.4,57.3,29.81,ESE,112,0.0,0.0,61,0.00,CLR,,0.00,WeatherDisplay:10.37,2013-06-27 02:40:00,
2013-06-26 22:45:00,71.2,57.1,29.81,ESE,112,0.0,0.5,61,0.00,CLR,,0.00,WeatherDisplay:10.37,2013-06-27 02:45:00,
2013-06-26 22:50:00,71.2,57.1,29.81,ESE,112,0.0,0.0,61,0.00,CLR,,0.00,WeatherDisplay:10.37,2013-06-27 02:50:00,
2013-06-26 22:55:00,71.1,56.9,29.81,ESE,112,0.7,0.7,61,0.00,CLR,,0.00,WeatherDisplay:10.37,2013-06-27 02:55:00,
2013-06-26 23:00:00,70.9,56.8,29.81,ESE,112,1.2,1.2,61,0.00,CLR,,0.00,WeatherDisplay:10.37,2013-06-27 03:00:00,
2013-06-26 23:05:00,70.9,56.3,29.81,East,90,0.0,0.0,60,0.00,CLR,,0.00,WeatherDisplay:10.37,2013-06-27 03:05:00,
2013-06-26 23:10:00,70.7,56.1,29.80,East,90,1.2,1.2,60,0.00,CLR,,0.00,WeatherDisplay:10.37,2013-06-27 03:10:00,
2013-06-26 23:15:00,70.5,56.0,29.81,East,90,0.0,0.0,60,0.00,CLR,,0.00,WeatherDisplay:10.37,2013-06-27 03:15:00,
2013-06-26 23:20:00,70.5,56.0,29.81,ESE,112,1.2,1.2,60,0.00,CLR,,0.00,WeatherDisplay:10.37,2013-06-27 03:20:00,
2013-06-26 23:26:00,70.3,55.8,29.81,ESE,112,0.0,0.0,60,0.00,CLR,,0.00,WeatherDisplay:10.37,2013-06-27 03:26:00,
2013-06-26 23:31:00,70.3,55.8,29.82,East,90,0.0,0.0,60,0.00,CLR,,0.00,WeatherDisplay:10.37,2013-06-27 03:31:00,
2013-06-26 23:36:00,70.3,55.8,29.82,East,90,0.0,0.0,60,0.00,CLR,,0.00,WeatherDisplay:10.37,2013-06-27 03:36:00,
2013-06-26 23:41:00,70.2,55.6,29.82,East,90,0.0,0.2,60,0.00,CLR,,0.00,WeatherDisplay:10.37,2013-06-27 03:41:00,
2013-06-26 23:46:00,70.2,55.6,29.82,East,90,0.0,0.0,60,0.00,CLR,,0.00,WeatherDisplay:10.37,2013-06-27 03:46:00,
2013-06-26 23:51:00,70.2,55.6,29.82,ESE,112,0.0,0.0,60,0.00,CLR,,0.00,WeatherDisplay:10.37,2013-06-27 03:51:00,
2013-06-26 23:56:00,70.2,55.6,29.82,ESE,112,0.0,0.0,60,0.00,CLR,,0.00,WeatherDisplay:10.37,2013-06-27 03:56:00,